Photometre #141[NE_1.6_Dp] Toulouse_MF AOT

File : 20200925_141.hum

25/09/2020,06:35:47,TEMP=10.3,BA=5.24,STAT.A=0.0,ExtBa=12.83
25/09/2020,06:37:53,TEMP=10.7,BA=5.24,STAT.b=0.0
25/09/2020,06:39:21,TEMP=10.8,BA=5.24,STAT.A=0.0,ExtBa=12.70
25/09/2020,06:41:54,TEMP=11.0,BA=5.16,STAT.b=0.0
25/09/2020,06:43:31,TEMP=11.0,BA=5.16,STAT.A=0.0,ExtBa=12.69
25/09/2020,06:48:12,TEMP=10.8,BA=5.16,STAT.A=0.0,ExtBa=12.75
25/09/2020,06:54:12,TEMP=10.7,BA=5.20,STAT.A=0.0,ExtBa=12.76
25/09/2020,07:01:35,TEMP=10.6,BA=5.24,STAT.A=0.0,ExtBa=12.77
25/09/2020,07:10:56,TEMP=10.6,BA=5.24,STAT.B=0.0,ExtBa=12.78
25/09/2020,07:15:24,TEMP=10.7,BA=5.24,STAT.A=0.0,ExtBa=12.74
25/09/2020,07:20:25,TEMP=10.6,BA=5.24,STAT.A=0.0,ExtBa=12.75
25/09/2020,07:26:05,TEMP=10.7,BA=5.24,STAT.A=0.0,ExtBa=12.74
25/09/2020,07:32:33,TEMP=10.8,BA=5.24,STAT.A=0.0,ExtBa=12.75
25/09/2020,07:39:58,TEMP=11.0,BA=5.24,STAT.C=0.0,ExtBa=12.77
25/09/2020,07:48:38,TEMP=10.4,BA=5.16,STAT.A=0.0,ExtBa=12.78
25/09/2020,07:58:52,TEMP=10.6,BA=5.16,STAT.A=0.0,ExtBa=12.78
25/09/2020,08:11:11,TEMP=11.6,BA=5.36,STAT.A=0.0,ExtBa=12.78
25/09/2020,08:26:24,TEMP=12.7,BA=5.48,STAT.A=0.0,ExtBa=12.87
25/09/2020,08:45:52,TEMP=14.0,BA=5.64,STAT.B=0.0,ExtBa=12.98
25/09/2020,08:57:23,TEMP=13.5,BA=5.36,STAT.F,ExtBa=12.67
25/09/2020,09:01:33,TEMP=12.0,BA=5.28,STAT.D=0.0,ExtBa=12.74
25/09/2020,09:16:33,TEMP=9.9,BA=5.28,STAT.D=0.0,ExtBa=12.80
25/09/2020,09:31:34,TEMP=9.9,BA=5.28,STAT.D=0.0,ExtBa=12.80
25/09/2020,09:46:35,TEMP=10.4,BA=5.28,STAT.F,ExtBa=12.79
25/09/2020,10:01:34,TEMP=10.8,BA=5.40,STAT.D=0.0,ExtBa=12.79
25/09/2020,10:16:34,TEMP=11.6,BA=5.64,STAT.D=0.0,ExtBa=13.05
25/09/2020,10:31:34,TEMP=12.7,BA=5.64,STAT.D=0.0,ExtBa=13.11
25/09/2020,10:46:35,TEMP=12.9,BA=5.52,STAT.F,ExtBa=13.02
25/09/2020,11:01:34,TEMP=12.1,BA=5.32,STAT.D=0.0,ExtBa=12.75
25/09/2020,11:16:34,TEMP=11.2,BA=5.36,STAT.D=0.0,ExtBa=12.80
25/09/2020,11:31:34,TEMP=10.5,BA=5.28,STAT.D=0.0,ExtBa=12.81
25/09/2020,11:46:36,TEMP=10.7,BA=5.40,STAT.F,ExtBa=13.34
25/09/2020,11:59:43,TEMP=11.9,BA=5.40,STAT.b=0.0
25/09/2020,12:01:50,TEMP=11.7,BA=5.36,STAT.D=0.0,ExtBa=12.71
25/09/2020,12:16:34,TEMP=11.9,BA=5.60,STAT.D=0.0,ExtBa=12.79
25/09/2020,12:31:34,TEMP=13.1,BA=5.64,STAT.D=0.0,ExtBa=13.50
25/09/2020,12:46:35,TEMP=14.7,BA=5.64,STAT.F,ExtBa=13.63
25/09/2020,13:01:34,TEMP=14.2,BA=5.64,STAT.D=0.0,ExtBa=13.21
25/09/2020,13:16:34,TEMP=13.3,BA=5.64,STAT.D=0.0,ExtBa=13.43
25/09/2020,13:31:34,TEMP=14.5,BA=5.64,STAT.D=0.0,ExtBa=13.54
25/09/2020,13:46:35,TEMP=13.2,BA=5.40,STAT.F,ExtBa=13.21
25/09/2020,14:01:34,TEMP=12.5,BA=5.40,STAT.D=0.0,ExtBa=13.16
25/09/2020,14:16:33,TEMP=12.5,BA=5.36,STAT.D=0.0,ExtBa=13.14
25/09/2020,14:31:33,TEMP=12.8,BA=5.48,STAT.D=0.0,ExtBa=13.13
25/09/2020,14:46:35,TEMP=13.4,BA=5.48,STAT.F,ExtBa=13.08
25/09/2020,14:48:46,TEMP=13.8,BA=5.48,STAT.B=0.0,ExtBa=13.00
25/09/2020,15:06:46,TEMP=13.6,BA=5.60,STAT.A=0.0,ExtBa=13.07
25/09/2020,15:21:59,TEMP=13.5,BA=5.44,STAT.A=0.0,ExtBa=13.39
25/09/2020,15:34:18,TEMP=14.3,BA=5.64,STAT.A=0.0,ExtBa=13.17
25/09/2020,15:44:31,TEMP=14.0,BA=5.52,STAT.A=0.0,ExtBa=13.08
25/09/2020,15:53:10,TEMP=13.9,BA=5.48,STAT.C=0.0,ExtBa=13.04
25/09/2020,16:00:35,TEMP=13.6,BA=5.36,STAT.A=0.0,ExtBa=13.02
25/09/2020,16:07:03,TEMP=13.4,BA=5.36,STAT.A=0.0,ExtBa=13.01
25/09/2020,16:12:43,TEMP=13.4,BA=5.36,STAT.A=0.0,ExtBa=12.99
25/09/2020,16:17:44,TEMP=13.3,BA=5.36,STAT.A=0.0,ExtBa=12.98
25/09/2020,16:22:12,TEMP=13.2,BA=5.32,STAT.B=0.0,ExtBa=12.96
25/09/2020,16:31:33,TEMP=13.1,BA=5.32,STAT.A=0.0,ExtBa=12.98
25/09/2020,16:38:56,TEMP=13.0,BA=5.32,STAT.A=0.0,ExtBa=12.96
25/09/2020,16:44:56,TEMP=13.0,BA=5.28,STAT.A=0.0,ExtBa=12.94
25/09/2020,16:49:53,TEMP=13.0,BA=5.28,STAT.A=0.0,ExtBa=12.92
25/09/2020,16:54:24,TEMP=13.0,BA=5.28,STAT.A=0.0,ExtBa=12.91
25/09/2020,16:57:37,TEMP=13.1,BA=5.28,STAT.A=0.0,ExtBa=12.88